Time,TemperatureF,DewpointF,PressureIn,WindDirection,WindDirectionDegrees,WindSpeedMPH,WindSpeedGustMPH,Humidity,HourlyPrecipIn,Conditions,Clouds,dailyrainin,SoftwareType,DateUTC
2013-04-20 00:14:00,59.1,59.0,29.55,East,93,9.0,29.0,98,0.00,,,0.02,weatherlink.com 1.10,2013-04-20 04:14:00,
2013-04-20 00:29:00,59.4,59.0,29.55,South,186,10.0,27.0,98,0.00,,,0.02,weatherlink.com 1.10,2013-04-20 04:29:00,
2013-04-20 00:44:00,59.5,59.0,29.55,NW,309,7.0,30.0,98,0.00,,,0.02,weatherlink.com 1.10,2013-04-20 04:44:00,
2013-04-20 00:59:00,60.1,59.0,29.54,NNW,346,13.0,24.0,97,0.00,,,0.00,weatherlink.com 1.10,2013-04-20 04:59:00,
2013-04-20 01:14:00,59.8,59.0,29.54,NNE,27,8.0,30.0,97,0.00,,,0.00,weatherlink.com 1.10,2013-04-20 05:14:00,
2013-04-20 01:29:00,59.4,59.0,29.54,NW,309,22.0,28.0,97,0.01,,,0.01,weatherlink.com 1.10,2013-04-20 05:29:00,
2013-04-20 01:44:00,59.0,58.0,29.53,NW,307,9.0,23.0,97,0.02,,,0.02,weatherlink.com 1.10,2013-04-20 05:44:00,
2013-04-20 01:59:00,59.1,58.0,29.52,NW,326,9.0,18.0,97,0.09,,,0.09,weatherlink.com 1.10,2013-04-20 05:59:00,
2013-04-20 02:14:00,60.1,59.0,29.50,NW,325,7.0,24.0,97,0.09,,,0.09,weatherlink.com 1.10,2013-04-20 06:14:00,
2013-04-20 02:29:00,60.3,60.0,29.49,NNW,346,10.0,16.0,97,0.08,,,0.09,weatherlink.com 1.10,2013-04-20 06:29:00,
2013-04-20 02:44:00,59.9,59.0,29.50,North,355,11.0,18.0,96,0.08,,,0.10,weatherlink.com 1.10,2013-04-20 06:44:00,
2013-04-20 02:59:00,59.1,58.0,29.50,NNW,346,5.0,25.0,96,0.01,,,0.10,weatherlink.com 1.10,2013-04-20 06:59:00,
2013-04-20 03:14:00,58.1,57.0,29.49,WNW,285,6.0,25.0,97,0.01,,,0.10,weatherlink.com 1.10,2013-04-20 07:14:00,
2013-04-20 03:29:00,57.4,57.0,29.49,NW,317,9.0,18.0,97,0.02,,,0.11,weatherlink.com 1.10,2013-04-20 07:29:00,
2013-04-20 03:44:00,57.0,56.0,29.49,NW,304,6.0,19.0,97,0.01,,,0.11,weatherlink.com 1.10,2013-04-20 07:44:00,
2013-04-20 03:59:00,56.3,56.0,29.50,NW,324,3.0,17.0,97,0.01,,,0.11,weatherlink.com 1.10,2013-04-20 07:59:00,
2013-04-20 04:14:00,55.8,55.0,29.50,NW,322,11.0,21.0,97,0.01,,,0.11,weatherlink.com 1.10,2013-04-20 08:14:00,
2013-04-20 04:29:00,55.5,55.0,29.50,WNW,292,2.0,17.0,97,0.00,,,0.11,weatherlink.com 1.10,2013-04-20 08:29:00,
2013-04-20 04:44:00,55.2,54.0,29.50,NNW,346,3.0,15.0,97,0.00,,,0.11,weatherlink.com 1.10,2013-04-20 08:44:00,
2013-04-20 04:59:00,54.7,54.0,29.50,NW,321,8.0,15.0,97,0.00,,,0.11,weatherlink.com 1.10,2013-04-20 08:59:00,
2013-04-20 05:14:00,54.3,54.0,29.50,NNE,29,6.0,15.0,97,0.00,,,0.11,weatherlink.com 1.10,2013-04-20 09:14:00,
2013-04-20 05:29:00,54.2,53.0,29.50,NW,316,7.0,16.0,97,0.01,,,0.12,weatherlink.com 1.10,2013-04-20 09:29:00,
2013-04-20 05:44:00,54.1,53.0,29.51,NW,319,5.0,12.0,97,0.03,,,0.14,weatherlink.com 1.10,2013-04-20 09:44:00,
2013-04-20 05:59:00,54.0,53.0,29.52,NW,314,3.0,7.0,97,0.06,,,0.17,weatherlink.com 1.10,2013-04-20 09:59:00,
2013-04-20 06:14:00,53.9,53.0,29.53,North,360,3.0,9.0,97,0.10,,,0.21,weatherlink.com 1.10,2013-04-20 10:14:00,
2013-04-20 06:29:00,53.0,52.0,29.55,ENE,74,2.0,10.0,96,0.10,,,0.22,weatherlink.com 1.10,2013-04-20 10:29:00,
2013-04-20 06:45:00,52.1,51.0,29.57,ENE,72,3.0,7.0,96,0.11,,,0.25,weatherlink.com 1.10,2013-04-20 10:45:00,
2013-04-20 07:00:00,51.8,51.0,29.58,NE,53,1.0,8.0,96,0.12,,,0.29,weatherlink.com 1.10,2013-04-20 11:00:00,
2013-04-20 07:15:00,50.8,50.0,29.59,NE,47,7.0,14.0,96,0.15,,,0.36,weatherlink.com 1.10,2013-04-20 11:15:00,
2013-04-20 07:30:00,50.0,49.0,29.60,NNE,15,1.0,9.0,96,0.19,,,0.41,weatherlink.com 1.10,2013-04-20 11:30:00,
2013-04-20 07:45:00,49.5,48.0,29.62,NE,43,4.0,7.0,96,0.18,,,0.43,weatherlink.com 1.10,2013-04-20 11:45:00,
2013-04-20 08:00:00,49.1,48.0,29.63,NNW,348,1.0,10.0,96,0.16,,,0.45,weatherlink.com 1.10,2013-04-20 12:00:00,
2013-04-20 08:15:00,48.2,47.0,29.64,ENE,63,4.0,11.0,96,0.09,,,0.46,weatherlink.com 1.10,2013-04-20 12:15:00,
2013-04-20 08:30:00,47.5,46.0,29.64,NE,54,5.0,12.0,95,0.05,,,0.47,weatherlink.com 1.10,2013-04-20 12:30:00,
2013-04-20 08:45:00,47.1,46.0,29.64,ENE,70,6.0,12.0,94,0.05,,,0.48,weatherlink.com 1.10,2013-04-20 12:45:00,
2013-04-20 09:00:00,46.9,46.0,29.65,East,79,4.0,9.0,95,0.03,,,0.48,weatherlink.com 1.10,2013-04-20 13:00:00,
2013-04-20 09:15:00,46.6,44.0,29.66,East,88,4.0,14.0,91,0.02,,,0.48,weatherlink.com 1.10,2013-04-20 13:15:00,
2013-04-20 09:30:00,46.6,44.0,29.66,ESE,105,8.0,11.0,90,0.01,,,0.48,weatherlink.com 1.10,2013-04-20 13:30:00,
2013-04-20 09:45:00,46.9,44.0,29.68,NE,56,3.0,13.0,88,0.00,,,0.48,weatherlink.com 1.10,2013-04-20 13:45:00,
2013-04-20 10:00:00,47.5,43.0,29.69,NE,52,7.0,9.0,85,0.00,,,0.48,weatherlink.com 1.10,2013-04-20 14:00:00,
2013-04-20 10:15:00,48.3,45.0,29.70,NNW,338,1.0,6.0,88,0.00,,,0.48,weatherlink.com 1.10,2013-04-20 14:15:00,
2013-04-20 10:30:00,48.9,44.0,29.71,NNE,29,4.0,10.0,83,0.00,,,0.48,weatherlink.com 1.10,2013-04-20 14:30:00,
2013-04-20 10:45:00,48.8,43.0,29.72,North,6,4.0,9.0,81,0.00,,,0.48,weatherlink.com 1.10,2013-04-20 14:45:00,
2013-04-20 11:00:00,49.7,43.0,29.72,NE,35,3.0,11.0,77,0.00,,,0.48,weatherlink.com 1.10,2013-04-20 15:00:00,
2013-04-20 11:15:00,50.9,44.0,29.73,North,357,5.0,11.0,76,0.00,,,0.48,weatherlink.com 1.10,2013-04-20 15:15:00,
2013-04-20 11:30:00,51.1,42.0,29.72,NE,49,1.0,11.0,70,0.00,,,0.48,weatherlink.com 1.10,2013-04-20 15:30:00,
2013-04-20 11:45:00,51.5,41.0,29.73,NNW,337,8.0,15.0,67,0.00,,,0.48,weatherlink.com 1.10,2013-04-20 15:45:00,
2013-04-20 12:00:00,52.3,42.0,29.73,NE,40,10.0,10.0,69,0.00,,,0.48,weatherlink.com 1.10,2013-04-20 16:00:00,
2013-04-20 12:15:00,52.7,41.0,29.73,North,1,6.0,12.0,65,0.00,,,0.48,weatherlink.com 1.10,2013-04-20 16:15:00,
2013-04-20 12:30:00,53.2,40.0,29.73,NE,36,7.0,11.0,61,0.00,,,0.48,weatherlink.com 1.10,2013-04-20 16:30:00,
2013-04-20 12:46:00,54.1,39.0,29.72,North,360,5.0,11.0,58,0.00,,,0.48,weatherlink.com 1.10,2013-04-20 16:46:00,
2013-04-20 13:01:00,55.0,38.0,29.71,East,79,5.0,14.0,54,0.00,,,0.48,weatherlink.com 1.10,2013-04-20 17:01:00,
2013-04-20 13:16:00,55.1,39.0,29.71,East,89,6.0,15.0,55,0.00,,,0.48,weatherlink.com 1.10,2013-04-20 17:16:00,
2013-04-20 13:31:00,55.7,39.0,29.71,ENE,72,4.0,12.0,53,0.00,,,0.48,weatherlink.com 1.10,2013-04-20 17:31:00,
2013-04-20 13:46:00,56.0,38.0,29.72,ENE,74,1.0,15.0,51,0.00,,,0.48,weatherlink.com 1.10,2013-04-20 17:46:00,
2013-04-20 14:01:00,57.1,38.0,29.71,NNE,22,3.0,11.0,49,0.00,,,0.48,weatherlink.com 1.10,2013-04-20 18:01:00,
2013-04-20 14:16:00,56.9,35.0,29.72,ENE,72,5.0,16.0,44,0.00,,,0.48,weatherlink.com 1.10,2013-04-20 18:16:00,
2013-04-20 14:31:00,57.3,35.0,29.72,North,5,4.0,11.0,43,0.00,,,0.48,weatherlink.com 1.10,2013-04-20 18:31:00,
2013-04-20 14:46:00,57.8,31.0,29.72,NNW,342,3.0,14.0,37,0.00,,,0.48,weatherlink.com 1.10,2013-04-20 18:46:00,
2013-04-20 15:01:00,57.8,32.0,29.73,East,84,2.0,13.0,38,0.00,,,0.48,weatherlink.com 1.10,2013-04-20 19:01:00,
2013-04-20 15:16:00,58.7,31.0,29.73,North,358,8.0,13.0,35,0.00,,,0.48,weatherlink.com 1.10,2013-04-20 19:16:00,
2013-04-20 15:31:00,59.5,32.0,29.73,NW,326,11.0,13.0,36,0.00,,,0.48,weatherlink.com 1.10,2013-04-20 19:31:00,
2013-04-20 15:46:00,58.3,31.0,29.74,North,350,7.0,12.0,36,0.00,,,0.48,weatherlink.com 1.10,2013-04-20 19:46:00,
2013-04-20 16:01:00,58.6,32.0,29.74,NNE,26,5.0,14.0,37,0.00,,,0.48,weatherlink.com 1.10,2013-04-20 20:01:00,
2013-04-20 16:16:00,57.4,31.0,29.75,North,6,4.0,14.0,37,0.00,,,0.48,weatherlink.com 1.10,2013-04-20 20:16:00,
2013-04-20 16:31:00,56.6,32.0,29.76,ESE,103,3.0,12.0,39,0.00,,,0.48,weatherlink.com 1.10,2013-04-20 20:31:00,
2013-04-20 16:46:00,56.4,32.0,29.77,NW,323,3.0,13.0,39,0.00,,,0.48,weatherlink.com 1.10,2013-04-20 20:46:00,
2013-04-20 17:01:00,55.9,32.0,29.78,NNE,16,4.0,11.0,41,0.00,,,0.48,weatherlink.com 1.10,2013-04-20 21:01:00,
2013-04-20 17:16:00,55.4,32.0,29.79,East,79,3.0,11.0,42,0.00,,,0.48,weatherlink.com 1.10,2013-04-20 21:16:00,
2013-04-20 17:31:00,55.7,33.0,29.80,NE,36,6.0,7.0,42,0.00,,,0.48,weatherlink.com 1.10,2013-04-20 21:31:00,
2013-04-20 17:46:00,56.0,31.0,29.80,ENE,64,12.0,12.0,39,0.00,,,0.48,weatherlink.com 1.10,2013-04-20 21:46:00,
2013-04-20 18:01:00,56.1,32.0,29.81,NNW,332,3.0,8.0,40,0.00,,,0.48,weatherlink.com 1.10,2013-04-20 22:01:00,
2013-04-20 18:16:00,55.7,33.0,29.82,East,84,1.0,8.0,43,0.00,,,0.48,weatherlink.com 1.10,2013-04-20 22:16:00,
2013-04-20 18:31:00,55.5,32.0,29.82,NE,35,4.0,9.0,41,0.00,,,0.48,weatherlink.com 1.10,2013-04-20 22:31:00,
2013-04-20 18:46:00,54.9,32.0,29.83,North,350,2.0,6.0,42,0.00,,,0.48,weatherlink.com 1.10,2013-04-20 22:46:00,
2013-04-20 19:01:00,53.8,34.0,29.84,NE,39,7.0,11.0,48,0.00,,,0.48,weatherlink.com 1.10,2013-04-20 23:01:00,
2013-04-20 19:16:00,52.3,34.0,29.85,NNE,33,4.0,11.0,50,0.00,,,0.48,weatherlink.com 1.10,2013-04-20 23:16:00,
2013-04-20 19:31:00,51.5,35.0,29.86,NNE,16,3.0,6.0,53,0.00,,,0.48,weatherlink.com 1.10,2013-04-20 23:31:00,
2013-04-20 19:46:00,50.9,35.0,29.86,NNW,342,2.0,6.0,54,0.00,,,0.48,weatherlink.com 1.10,2013-04-20 23:46:00,
2013-04-20 20:01:00,50.2,34.0,29.87,NW,323,1.0,4.0,55,0.00,,,0.48,weatherlink.com 1.10,2013-04-21 00:01:00,
2013-04-20 20:16:00,49.7,34.0,29.88,North,355,1.0,4.0,56,0.00,,,0.48,weatherlink.com 1.10,2013-04-21 00:16:00,
2013-04-20 20:31:00,49.3,34.0,29.90,NNE,22,1.0,3.0,57,0.00,,,0.48,weatherlink.com 1.10,2013-04-21 00:31:00,
2013-04-20 20:46:00,48.4,37.0,29.91,NNE,29,0.0,3.0,64,0.00,,,0.48,weatherlink.com 1.10,2013-04-21 00:46:00,
2013-04-20 21:01:00,47.8,35.0,29.92,NE,37,1.0,3.0,62,0.00,,,0.48,weatherlink.com 1.10,2013-04-21 01:01:00,
2013-04-20 21:17:00,46.9,36.0,29.93,NNE,31,0.0,2.0,66,0.00,,,0.48,weatherlink.com 1.10,2013-04-21 01:17:00,
2013-04-20 21:32:00,46.2,36.0,29.95,East,89,1.0,2.0,67,0.00,,,0.48,weatherlink.com 1.10,2013-04-21 01:32:00,
2013-04-20 21:47:00,47.6,34.0,29.95,ENE,75,2.0,5.0,59,0.00,,,0.48,weatherlink.com 1.10,2013-04-21 01:47:00,
2013-04-20 22:02:00,48.0,34.0,29.96,ENE,65,4.0,4.0,58,0.00,,,0.48,weatherlink.com 1.10,2013-04-21 02:02:00,
2013-04-20 22:17:00,48.4,32.0,29.98,East,94,4.0,7.0,54,0.00,,,0.48,weatherlink.com 1.10,2013-04-21 02:17:00,
2013-04-20 22:32:00,48.7,31.0,29.98,East,79,5.0,11.0,50,0.00,,,0.48,weatherlink.com 1.10,2013-04-21 02:32:00,
2013-04-20 22:47:00,48.4,30.0,29.99,East,96,5.0,10.0,49,0.00,,,0.48,weatherlink.com 1.10,2013-04-21 02:47:00,
2013-04-20 23:02:00,48.2,28.0,30.00,ENE,68,6.0,14.0,46,0.00,,,0.48,weatherlink.com 1.10,2013-04-21 03:02:00,
2013-04-20 23:17:00,47.5,28.0,30.01,NE,38,4.0,11.0,48,0.00,,,0.48,weatherlink.com 1.10,2013-04-21 03:17:00,
2013-04-20 23:32:00,47.1,28.0,30.02,East,90,3.0,11.0,48,0.00,,,0.48,weatherlink.com 1.10,2013-04-21 03:32:00,
2013-04-20 23:47:00,46.7,29.0,30.03,East,81,3.0,11.0,50,0.00,,,0.48,weatherlink.com 1.10,2013-04-21 03:47:00,